createdAt,value
2017-06-24T00:00:52.596Z,1007.74
2017-06-24T00:10:52.565Z,1007.78
2017-06-24T00:20:52.636Z,1007.72
2017-06-24T00:30:52.592Z,1007.66
2017-06-24T00:40:52.564Z,1007.61
2017-06-24T00:50:52.608Z,1007.63
2017-06-24T01:00:52.568Z,1007.68
2017-06-24T01:10:52.536Z,1007.65
2017-06-24T01:20:52.589Z,1007.66
2017-06-24T01:30:52.549Z,1007.63
2017-06-24T01:40:52.621Z,1007.74
2017-06-24T01:50:52.574Z,1007.63
2017-06-24T02:00:52.539Z,1007.68
2017-06-24T02:10:52.600Z,1007.79
2017-06-24T02:20:52.555Z,1007.62
2017-06-24T02:30:52.621Z,1007.58
2017-06-24T02:40:52.574Z,1007.57
2017-06-24T02:50:52.542Z,1007.43
2017-06-24T03:00:52.608Z,1007.33
2017-06-24T03:10:52.569Z,1007.27
2017-06-24T03:20:52.539Z,1007.19
2017-06-24T03:30:52.585Z,1007.12
2017-06-24T03:40:52.550Z,1007.14
2017-06-24T03:50:52.609Z,1007.03
2017-06-24T04:00:52.512Z,1007.05
2017-06-24T04:10:52.529Z,1007.02
2017-06-24T04:20:52.598Z,1007.07
2017-06-24T04:30:52.564Z,1007.02
2017-06-24T04:40:52.630Z,1007.02
2017-06-24T04:50:52.582Z,1007.01
2017-06-24T05:00:52.542Z,1007.04
2017-06-24T05:10:52.608Z,1007.06
2017-06-24T05:20:52.563Z,1006.98
2017-06-24T05:30:52.640Z,1006.78
2017-06-24T05:40:52.596Z,1006.67
2017-06-24T05:50:52.555Z,1006.72
2017-06-24T06:00:52.621Z,1006.7
2017-06-24T06:10:52.583Z,1006.81
2017-06-24T06:20:52.537Z,1006.91
2017-06-24T06:30:52.604Z,1006.91
2017-06-24T06:40:52.563Z,1006.9
2017-06-24T06:50:52.626Z,1006.77
2017-06-24T07:00:52.601Z,1006.89
2017-06-24T07:10:52.553Z,1006.79
2017-06-24T07:20:52.617Z,1006.99
2017-06-24T07:30:52.577Z,1007.03
2017-06-24T07:40:52.550Z,1006.93
2017-06-24T07:50:52.585Z,1006.96
2017-06-24T08:00:52.564Z,1006.95
2017-06-24T08:10:52.619Z,1006.92
2017-06-24T08:20:52.578Z,1006.82
2017-06-24T08:30:52.654Z,1006.75
2017-06-24T08:40:52.599Z,1006.58
2017-06-24T08:50:52.577Z,1006.6
2017-06-24T09:00:52.728Z,1006.61
2017-06-24T09:10:52.603Z,1006.6
2017-06-24T09:20:52.661Z,1006.61
2017-06-24T09:30:52.620Z,1006.76
2017-06-24T09:40:52.828Z,1006.75
2017-06-24T09:50:52.720Z,1006.74
2017-06-24T10:00:52.626Z,1006.84
2017-06-24T10:10:52.673Z,1006.93
2017-06-24T10:20:52.609Z,1006.96
2017-06-24T10:30:52.570Z,1007.02
2017-06-24T10:40:52.645Z,1006.99
2017-06-24T10:50:52.611Z,1007.03
2017-06-24T11:00:52.575Z,1006.97
2017-06-24T11:10:52.629Z,1006.91
2017-06-24T11:20:52.589Z,1006.93
2017-06-24T11:30:52.655Z,1006.94
2017-06-24T11:40:54.144Z,1007.02
2017-06-24T11:50:52.677Z,1007.06
2017-06-24T12:00:52.664Z,1007.09
2017-06-24T12:10:52.568Z,1007
2017-06-24T12:20:52.562Z,1007.14
2017-06-24T12:30:52.573Z,1007.12
2017-06-24T12:40:52.572Z,1007.18
2017-06-24T12:50:52.571Z,1007.19
2017-06-24T13:00:52.589Z,1007.1
2017-06-24T13:10:52.577Z,1007.04
2017-06-24T13:20:52.569Z,1007.06
2017-06-24T13:30:52.568Z,1007.11
2017-06-24T13:40:52.586Z,1007.12
2017-06-24T13:50:52.599Z,1007.08
2017-06-24T14:00:52.576Z,1007.23
2017-06-24T14:10:52.588Z,1007.01
2017-06-24T14:20:52.576Z,1006.95
2017-06-24T14:30:52.586Z,1006.89
2017-06-24T14:40:52.586Z,1006.88
2017-06-24T14:50:52.576Z,1006.88
2017-06-24T15:00:52.586Z,1006.83
2017-06-24T15:10:52.583Z,1006.8
2017-06-24T15:20:52.590Z,1006.79
2017-06-24T15:30:52.617Z,1006.75
2017-06-24T15:40:52.596Z,1006.73
2017-06-24T15:50:52.591Z,1006.68
2017-06-24T16:00:52.709Z,1006.61
2017-06-24T16:10:52.779Z,1006.52
2017-06-24T16:20:52.636Z,1006.54
2017-06-24T16:30:52.597Z,1006.41
2017-06-24T16:40:52.705Z,1006.37
2017-06-24T16:50:52.590Z,1006.4
2017-06-24T17:00:52.597Z,1006.41
2017-06-24T17:10:52.599Z,1006.41
2017-06-24T17:20:52.604Z,1006.35
2017-06-24T17:30:52.619Z,1006.36
2017-06-24T17:40:52.764Z,1006.29
2017-06-24T17:50:53.691Z,1006.23
2017-06-24T18:00:52.651Z,1006.21
2017-06-24T18:10:52.606Z,1006.08
2017-06-24T18:20:52.610Z,1006.09
2017-06-24T18:30:52.609Z,1006.03
2017-06-24T18:40:52.736Z,1006.07
2017-06-24T18:50:52.635Z,1006.08
2017-06-24T19:00:52.606Z,1005.98
2017-06-24T19:10:52.603Z,1005.92
2017-06-24T19:20:52.613Z,1005.96
2017-06-24T19:30:52.609Z,1005.9
2017-06-24T19:40:52.612Z,1005.86
2017-06-24T19:50:52.606Z,1005.88
2017-06-24T20:00:52.700Z,1005.81
2017-06-24T20:10:52.620Z,1005.78
2017-06-24T20:20:52.619Z,1005.91
2017-06-24T20:30:52.612Z,1005.86
2017-06-24T20:40:52.656Z,1005.76
2017-06-24T20:50:52.610Z,1005.72
2017-06-24T21:00:52.635Z,1005.68
2017-06-24T21:10:52.630Z,1005.59
2017-06-24T21:20:52.623Z,1005.66
2017-06-24T21:30:52.623Z,1005.56
2017-06-24T21:40:52.606Z,1005.56
2017-06-24T21:50:52.616Z,1005.45
2017-06-24T22:00:52.619Z,1005.42
2017-06-24T22:10:52.613Z,1005.35
2017-06-24T22:20:52.626Z,1005.2
2017-06-24T22:30:52.617Z,1005.22
2017-06-24T22:40:52.622Z,1005.17
2017-06-24T22:50:52.619Z,1005.05
2017-06-24T23:00:52.612Z,1004.9
2017-06-24T23:10:52.609Z,1004.81
2017-06-24T23:20:52.620Z,1004.67
2017-06-24T23:30:52.628Z,1004.56
2017-06-24T23:40:52.623Z,1004.46
2017-06-24T23:50:52.613Z,1004.4
